Flight Track Log - Related Links

Times and Time Zones

All times are in EDT time to prevent confusion due to time zone crossing. See the N403DM flight status page for this flight to view local times or setup timezone preferences in your user account.

Time Position Orientation Groundspeed Altitude Reporting Facility
EDT Latitude Longitude Course Direction KTS MPH feet Rate Location/Type
Fri 06:06:35 AM 39.9325 -84.2125 351° North 132 152 1,800  Level Indianapolis Center
Fri 06:07:54 AM 39.9828 -84.2133 359° North 141 162 2,500 442 Climbing Indianapolis Center
Fri 06:08:10 AM 39.9878 -84.2117 14° North 131 151 2,500  Level Indianapolis Center
Fri 06:08:48 AM 40.0181 -84.2197 348° North 153 176 2,500  Level Indianapolis Center
Fri 06:09:11 AM 40.0289 -84.2244 342° North 141 162 2,500 -98 Level Indianapolis Center
Fri 06:09:49 AM 40.0447 -84.2656 297° West 158 182 2,400 -98 Descending Indianapolis Center
Fri 06:10:12 AM 40.0503 -84.2747 308° West 149 171 2,400  Level Indianapolis Center
Fri 06:10:43 AM 40.0617 -84.3042 297° West 143 165 2,400 -100 Level Indianapolis Center
Fri 06:11:12 AM 40.0714 -84.3178 313° West 146 168 2,300  Descending Indianapolis Center
Fri 06:11:38 AM 40.0853 -84.3386 311° West 141 162 2,400 197 Climbing Indianapolis Center
Fri 06:12:13 AM 40.0958 -84.3572 307° West 144 166 2,500 100 Climbing Indianapolis Center
Fri 06:12:38 AM 40.1106 -84.3786 312° West 140 161 2,500  Level Indianapolis Center
Fri 06:13:13 AM 40.1214 -84.3961 309° West 143 165 2,500  Level Indianapolis Center
Fri 06:13:39 AM 40.1350 -84.4244 302° West 143 165 2,500  Level Indianapolis Center
Fri 06:14:14 AM 40.1447 -84.4383 312° West 143 165 2,500  Level Indianapolis Center
Fri 06:14:40 AM 40.1558 -84.4667 297° West 144 166 2,500  Level Indianapolis Center
Fri 06:15:15 AM 40.1711 -84.4908 310° West 143 165 2,500  Level Indianapolis Center
Fri 06:15:46 AM 40.1847 -84.5103 313° West 146 168 2,500  Level Indianapolis Center
Fri 06:16:15 AM 40.1975 -84.5297 311° West 143 165 2,500 -98 Level Indianapolis Center
Fri 06:16:47 AM 40.2094 -84.5533 304° West 146 168 2,400  Descending Indianapolis Center
Fri 06:17:16 AM 40.2228 -84.5722 313° West 143 165 2,500  Climbing Indianapolis Center
Fri 06:17:48 AM 40.2342 -84.5964 302° West 147 169 2,400 -98 Descending Indianapolis Center
Fri 06:18:17 AM 40.2461 -84.6158 309° West 144 166 2,400  Level Indianapolis Center
Fri 06:18:48 AM 40.2589 -84.6422 302° West 147 169 2,400  Level Indianapolis Center
Fri 06:19:43 AM 40.2781 -84.6786 305° West 146 168 2,400  Level Indianapolis Center

Login

Don't have an account? Register now (free) for customized features, flight alerts, and more!